sensor_id;sensor_type;location;lat;lon;timestamp;P1;durP1;ratioP1;P2;durP2;ratioP2
2674;SDS011;1347;42.122;24.746;2023-03-26T00:02:03;23.30;;;21.00;;
2674;SDS011;1347;42.122;24.746;2023-03-26T00:04:30;23.83;;;21.37;;
2674;SDS011;1347;42.122;24.746;2023-03-26T00:06:58;22.57;;;20.40;;
2674;SDS011;1347;42.122;24.746;2023-03-26T00:09:25;20.03;;;18.13;;
2674;SDS011;1347;42.122;24.746;2023-03-26T00:11:54;19.47;;;17.47;;
2674;SDS011;1347;42.122;24.746;2023-03-26T00:14:21;20.70;;;18.60;;
2674;SDS011;1347;42.122;24.746;2023-03-26T00:16:48;20.40;;;18.30;;
2674;SDS011;1347;42.122;24.746;2023-03-26T00:19:16;21.40;;;18.57;;
2674;SDS011;1347;42.122;24.746;2023-03-26T00:21:43;20.93;;;18.97;;
2674;SDS011;1347;42.122;24.746;2023-03-26T00:24:12;20.07;;;18.07;;
2674;SDS011;1347;42.122;24.746;2023-03-26T00:26:40;19.70;;;17.90;;
2674;SDS011;1347;42.122;24.746;2023-03-26T00:29:07;22.03;;;19.60;;
2674;SDS011;1347;42.122;24.746;2023-03-26T00:31:37;22.40;;;20.30;;
2674;SDS011;1347;42.122;24.746;2023-03-26T00:34:05;22.80;;;20.50;;
2674;SDS011;1347;42.122;24.746;2023-03-26T00:36:34;24.17;;;21.50;;
2674;SDS011;1347;42.122;24.746;2023-03-26T00:39:01;25.43;;;23.00;;
2674;SDS011;1347;42.122;24.746;2023-03-26T00:41:29;26.63;;;23.73;;
2674;SDS011;1347;42.122;24.746;2023-03-26T00:44:00;26.80;;;24.20;;
2674;SDS011;1347;42.122;24.746;2023-03-26T00:46:28;27.27;;;24.67;;
2674;SDS011;1347;42.122;24.746;2023-03-26T00:48:56;29.20;;;26.33;;
2674;SDS011;1347;42.122;24.746;2023-03-26T00:51:24;29.30;;;26.13;;
2674;SDS011;1347;42.122;24.746;2023-03-26T00:53:54;26.93;;;24.23;;
2674;SDS011;1347;42.122;24.746;2023-03-26T00:56:22;24.60;;;22.23;;
2674;SDS011;1347;42.122;24.746;2023-03-26T00:58:49;25.43;;;22.87;;
2674;SDS011;1347;42.122;24.746;2023-03-26T01:01:17;23.00;;;20.80;;
2674;SDS011;1347;42.122;24.746;2023-03-26T01:03:51;21.80;;;19.60;;
2674;SDS011;1347;42.122;24.746;2023-03-26T01:06:23;23.83;;;20.10;;
2674;SDS011;1347;42.122;24.746;2023-03-26T01:08:54;22.57;;;20.40;;
2674;SDS011;1347;42.122;24.746;2023-03-26T01:11:24;20.90;;;18.73;;
2674;SDS011;1347;42.122;24.746;2023-03-26T01:13:56;21.47;;;19.47;;
2674;SDS011;1347;42.122;24.746;2023-03-26T01:16:26;19.73;;;17.63;;
2674;SDS011;1347;42.122;24.746;2023-03-26T01:18:56;21.07;;;18.63;;
2674;SDS011;1347;42.122;24.746;2023-03-26T01:21:25;21.70;;;17.70;;
2674;SDS011;1347;42.122;24.746;2023-03-26T01:23:57;21.67;;;18.00;;
2674;SDS011;1347;42.122;24.746;2023-03-26T01:26:34;17.47;;;15.83;;
2674;SDS011;1347;42.122;24.746;2023-03-26T01:29:15;19.93;;;17.40;;
2674;SDS011;1347;42.122;24.746;2023-03-26T01:31:48;18.63;;;16.13;;
2674;SDS011;1347;42.122;24.746;2023-03-26T01:34:28;19.43;;;16.50;;
2674;SDS011;1347;42.122;24.746;2023-03-26T01:37:03;18.03;;;16.20;;
2674;SDS011;1347;42.122;24.746;2023-03-26T01:39:43;18.30;;;16.40;;
2674;SDS011;1347;42.122;24.746;2023-03-26T01:42:19;18.83;;;16.87;;
2674;SDS011;1347;42.122;24.746;2023-03-26T01:44:52;16.93;;;15.27;;
2674;SDS011;1347;42.122;24.746;2023-03-26T01:47:24;16.20;;;14.80;;
2674;SDS011;1347;42.122;24.746;2023-03-26T01:49:51;17.20;;;13.87;;
2674;SDS011;1347;42.122;24.746;2023-03-26T01:52:20;14.50;;;13.10;;
2674;SDS011;1347;42.122;24.746;2023-03-26T01:54:51;15.20;;;13.60;;
2674;SDS011;1347;42.122;24.746;2023-03-26T01:57:20;14.27;;;12.90;;
2674;SDS011;1347;42.122;24.746;2023-03-26T02:02:52;11.40;;;10.33;;
2674;SDS011;1347;42.122;24.746;2023-03-26T02:05:28;11.17;;;9.97;;
2674;SDS011;1347;42.122;24.746;2023-03-26T02:08:01;12.47;;;8.90;;
2674;SDS011;1347;42.122;24.746;2023-03-26T02:10:39;9.27;;;8.30;;
2674;SDS011;1347;42.122;24.746;2023-03-26T02:13:08;9.50;;;8.53;;
2674;SDS011;1347;42.122;24.746;2023-03-26T02:15:36;8.40;;;7.60;;
2674;SDS011;1347;42.122;24.746;2023-03-26T02:18:03;8.50;;;7.70;;
2674;SDS011;1347;42.122;24.746;2023-03-26T02:20:30;7.57;;;6.87;;
2674;SDS011;1347;42.122;24.746;2023-03-26T02:22:58;10.00;;;7.80;;
2674;SDS011;1347;42.122;24.746;2023-03-26T02:25:25;10.23;;;7.67;;
2674;SDS011;1347;42.122;24.746;2023-03-26T02:27:53;6.80;;;6.17;;
2674;SDS011;1347;42.122;24.746;2023-03-26T02:30:21;6.30;;;5.80;;
2674;SDS011;1347;42.122;24.746;2023-03-26T02:32:51;6.10;;;5.50;;
2674;SDS011;1347;42.122;24.746;2023-03-26T02:35:18;5.93;;;5.40;;
2674;SDS011;1347;42.122;24.746;2023-03-26T02:37:46;6.60;;;6.00;;
2674;SDS011;1347;42.122;24.746;2023-03-26T02:40:15;5.63;;;5.10;;
2674;SDS011;1347;42.122;24.746;2023-03-26T02:42:45;5.47;;;5.07;;
2674;SDS011;1347;42.122;24.746;2023-03-26T02:45:14;8.23;;;4.43;;
2674;SDS011;1347;42.122;24.746;2023-03-26T02:47:41;4.13;;;3.73;;
2674;SDS011;1347;42.122;24.746;2023-03-26T02:50:10;4.63;;;4.23;;
2674;SDS011;1347;42.122;24.746;2023-03-26T02:52:37;3.97;;;3.57;;
2674;SDS011;1347;42.122;24.746;2023-03-26T02:55:04;3.33;;;2.73;;
2674;SDS011;1347;42.122;24.746;2023-03-26T02:57:31;4.40;;;3.20;;
2674;SDS011;1347;42.122;24.746;2023-03-26T02:59:58;3.20;;;2.90;;
2674;SDS011;1347;42.122;24.746;2023-03-26T03:02:30;5.43;;;2.70;;
2674;SDS011;1347;42.122;24.746;2023-03-26T03:04:57;2.50;;;2.30;;
2674;SDS011;1347;42.122;24.746;2023-03-26T03:07:25;3.13;;;2.83;;
2674;SDS011;1347;42.122;24.746;2023-03-26T03:09:53;3.03;;;2.60;;
2674;SDS011;1347;42.122;24.746;2023-03-26T03:12:20;2.63;;;2.43;;
2674;SDS011;1347;42.122;24.746;2023-03-26T03:14:47;2.80;;;2.13;;
2674;SDS011;1347;42.122;24.746;2023-03-26T03:17:14;2.57;;;2.20;;
2674;SDS011;1347;42.122;24.746;2023-03-26T03:19:42;6.70;;;1.70;;
2674;SDS011;1347;42.122;24.746;2023-03-26T03:22:09;2.70;;;2.20;;
2674;SDS011;1347;42.122;24.746;2023-03-26T03:24:36;2.77;;;2.10;;
2674;SDS011;1347;42.122;24.746;2023-03-26T03:27:04;2.60;;;2.40;;
2674;SDS011;1347;42.122;24.746;2023-03-26T03:29:31;2.13;;;1.93;;
2674;SDS011;1347;42.122;24.746;2023-03-26T03:31:58;4.87;;;2.00;;
2674;SDS011;1347;42.122;24.746;2023-03-26T03:34:25;2.73;;;1.90;;
2674;SDS011;1347;42.122;24.746;2023-03-26T03:36:53;2.30;;;2.00;;
2674;SDS011;1347;42.122;24.746;2023-03-26T03:39:20;2.03;;;1.80;;
2674;SDS011;1347;42.122;24.746;2023-03-26T03:41:47;1.67;;;1.50;;
2674;SDS011;1347;42.122;24.746;2023-03-26T03:44:14;2.67;;;1.90;;
2674;SDS011;1347;42.122;24.746;2023-03-26T03:46:42;1.57;;;1.40;;
2674;SDS011;1347;42.122;24.746;2023-03-26T03:49:08;2.20;;;1.80;;
2674;SDS011;1347;42.122;24.746;2023-03-26T03:51:35;1.63;;;1.43;;
2674;SDS011;1347;42.122;24.746;2023-03-26T03:54:04;1.70;;;1.60;;
2674;SDS011;1347;42.122;24.746;2023-03-26T03:56:32;2.50;;;1.60;;
2674;SDS011;1347;42.122;24.746;2023-03-26T03:59:00;2.20;;;2.00;;
2674;SDS011;1347;42.122;24.746;2023-03-26T04:01:27;1.90;;;1.80;;
2674;SDS011;1347;42.122;24.746;2023-03-26T04:03:55;3.10;;;1.77;;
2674;SDS011;1347;42.122;24.746;2023-03-26T04:06:23;2.10;;;1.90;;
2674;SDS011;1347;42.122;24.746;2023-03-26T04:08:50;2.27;;;1.50;;
2674;SDS011;1347;42.122;24.746;2023-03-26T04:11:19;2.30;;;1.97;;
2674;SDS011;1347;42.122;24.746;2023-03-26T04:13:46;1.97;;;1.67;;
2674;SDS011;1347;42.122;24.746;2023-03-26T04:16:13;2.10;;;1.90;;
2674;SDS011;1347;42.122;24.746;2023-03-26T04:18:41;2.37;;;1.87;;
2674;SDS011;1347;42.122;24.746;2023-03-26T04:21:09;7.83;;;2.20;;
2674;SDS011;1347;42.122;24.746;2023-03-26T04:23:36;2.07;;;1.80;;
2674;SDS011;1347;42.122;24.746;2023-03-26T04:26:04;3.20;;;1.77;;
2674;SDS011;1347;42.122;24.746;2023-03-26T04:28:41;1.90;;;1.80;;
2674;SDS011;1347;42.122;24.746;2023-03-26T04:31:12;2.00;;;1.80;;
2674;SDS011;1347;42.122;24.746;2023-03-26T04:33:42;2.37;;;2.17;;
2674;SDS011;1347;42.122;24.746;2023-03-26T04:36:11;3.40;;;2.77;;
2674;SDS011;1347;42.122;24.746;2023-03-26T04:38:40;1.80;;;1.33;;
2674;SDS011;1347;42.122;24.746;2023-03-26T04:41:09;3.40;;;2.17;;
2674;SDS011;1347;42.122;24.746;2023-03-26T04:43:39;2.67;;;1.90;;
2674;SDS011;1347;42.122;24.746;2023-03-26T04:46:11;4.10;;;2.10;;
2674;SDS011;1347;42.122;24.746;2023-03-26T04:48:38;3.20;;;2.00;;
2674;SDS011;1347;42.122;24.746;2023-03-26T04:51:05;2.80;;;2.60;;
2674;SDS011;1347;42.122;24.746;2023-03-26T04:53:34;4.13;;;2.20;;
2674;SDS011;1347;42.122;24.746;2023-03-26T04:56:02;2.30;;;2.10;;
2674;SDS011;1347;42.122;24.746;2023-03-26T04:58:35;3.00;;;2.00;;
2674;SDS011;1347;42.122;24.746;2023-03-26T05:01:04;2.10;;;1.90;;
2674;SDS011;1347;42.122;24.746;2023-03-26T05:03:32;3.43;;;1.90;;
2674;SDS011;1347;42.122;24.746;2023-03-26T05:05:59;1.80;;;1.70;;
2674;SDS011;1347;42.122;24.746;2023-03-26T05:08:27;2.60;;;2.40;;
2674;SDS011;1347;42.122;24.746;2023-03-26T05:10:54;5.60;;;1.77;;
2674;SDS011;1347;42.122;24.746;2023-03-26T05:13:21;3.13;;;2.50;;
2674;SDS011;1347;42.122;24.746;2023-03-26T05:15:48;2.13;;;2.03;;
2674;SDS011;1347;42.122;24.746;2023-03-26T05:18:18;2.50;;;2.30;;
2674;SDS011;1347;42.122;24.746;2023-03-26T05:20:45;2.60;;;2.40;;
2674;SDS011;1347;42.122;24.746;2023-03-26T05:23:12;2.23;;;1.90;;
2674;SDS011;1347;42.122;24.746;2023-03-26T05:25:39;2.30;;;2.00;;
2674;SDS011;1347;42.122;24.746;2023-03-26T05:28:07;2.33;;;2.10;;
2674;SDS011;1347;42.122;24.746;2023-03-26T05:30:34;2.40;;;2.20;;
2674;SDS011;1347;42.122;24.746;2023-03-26T05:33:02;2.17;;;2.00;;
2674;SDS011;1347;42.122;24.746;2023-03-26T05:35:30;2.77;;;2.57;;
2674;SDS011;1347;42.122;24.746;2023-03-26T05:37:57;3.33;;;2.57;;
2674;SDS011;1347;42.122;24.746;2023-03-26T05:40:24;2.30;;;2.10;;
2674;SDS011;1347;42.122;24.746;2023-03-26T05:42:51;2.10;;;1.90;;
2674;SDS011;1347;42.122;24.746;2023-03-26T05:45:18;2.50;;;2.30;;
2674;SDS011;1347;42.122;24.746;2023-03-26T05:47:46;2.73;;;2.50;;
2674;SDS011;1347;42.122;24.746;2023-03-26T05:50:15;2.80;;;2.50;;
2674;SDS011;1347;42.122;24.746;2023-03-26T05:52:44;2.60;;;2.20;;
2674;SDS011;1347;42.122;24.746;2023-03-26T05:55:11;3.70;;;2.60;;
2674;SDS011;1347;42.122;24.746;2023-03-26T05:57:38;2.43;;;2.23;;
2674;SDS011;1347;42.122;24.746;2023-03-26T06:00:06;2.87;;;2.37;;
2674;SDS011;1347;42.122;24.746;2023-03-26T06:02:35;2.50;;;2.30;;
2674;SDS011;1347;42.122;24.746;2023-03-26T06:05:03;2.53;;;2.33;;
2674;SDS011;1347;42.122;24.746;2023-03-26T06:07:32;3.90;;;2.30;;
2674;SDS011;1347;42.122;24.746;2023-03-26T06:10:00;2.57;;;2.27;;
2674;SDS011;1347;42.122;24.746;2023-03-26T06:12:27;2.33;;;2.10;;
2674;SDS011;1347;42.122;24.746;2023-03-26T06:14:54;3.67;;;2.70;;
2674;SDS011;1347;42.122;24.746;2023-03-26T06:17:21;3.17;;;2.50;;
2674;SDS011;1347;42.122;24.746;2023-03-26T06:19:48;2.90;;;2.70;;
2674;SDS011;1347;42.122;24.746;2023-03-26T06:22:15;4.80;;;2.60;;
2674;SDS011;1347;42.122;24.746;2023-03-26T06:24:42;3.90;;;2.73;;
2674;SDS011;1347;42.122;24.746;2023-03-26T06:27:11;3.00;;;2.80;;
2674;SDS011;1347;42.122;24.746;2023-03-26T06:29:38;3.63;;;2.97;;
2674;SDS011;1347;42.122;24.746;2023-03-26T06:32:05;3.27;;;2.97;;
2674;SDS011;1347;42.122;24.746;2023-03-26T06:34:32;3.53;;;2.77;;
2674;SDS011;1347;42.122;24.746;2023-03-26T06:36:59;3.50;;;3.20;;
2674;SDS011;1347;42.122;24.746;2023-03-26T06:39:26;3.20;;;2.90;;
2674;SDS011;1347;42.122;24.746;2023-03-26T06:41:53;3.67;;;3.30;;
2674;SDS011;1347;42.122;24.746;2023-03-26T06:44:22;5.33;;;3.07;;
2674;SDS011;1347;42.122;24.746;2023-03-26T06:46:49;2.43;;;2.23;;
2674;SDS011;1347;42.122;24.746;2023-03-26T06:49:16;2.30;;;2.10;;
2674;SDS011;1347;42.122;24.746;2023-03-26T06:51:43;3.90;;;2.30;;
2674;SDS011;1347;42.122;24.746;2023-03-26T06:54:10;4.30;;;1.97;;
2674;SDS011;1347;42.122;24.746;2023-03-26T06:56:37;2.97;;;2.27;;
2674;SDS011;1347;42.122;24.746;2023-03-26T06:59:04;2.80;;;2.00;;
2674;SDS011;1347;42.122;24.746;2023-03-26T07:01:33;7.43;;;2.50;;
2674;SDS011;1347;42.122;24.746;2023-03-26T07:04:00;3.23;;;2.87;;
2674;SDS011;1347;42.122;24.746;2023-03-26T07:06:27;3.93;;;3.40;;
2674;SDS011;1347;42.122;24.746;2023-03-26T07:08:54;2.67;;;2.17;;
2674;SDS011;1347;42.122;24.746;2023-03-26T07:11:21;2.70;;;2.50;;
2674;SDS011;1347;42.122;24.746;2023-03-26T07:13:49;2.27;;;2.10;;
2674;SDS011;1347;42.122;24.746;2023-03-26T07:16:16;2.67;;;1.83;;
2674;SDS011;1347;42.122;24.746;2023-03-26T07:18:45;3.00;;;2.07;;
2674;SDS011;1347;42.122;24.746;2023-03-26T07:21:12;2.60;;;2.40;;
2674;SDS011;1347;42.122;24.746;2023-03-26T07:23:40;2.90;;;2.50;;
2674;SDS011;1347;42.122;24.746;2023-03-26T07:26:11;2.17;;;1.97;;
2674;SDS011;1347;42.122;24.746;2023-03-26T07:28:46;3.00;;;2.17;;
2674;SDS011;1347;42.122;24.746;2023-03-26T07:31:19;1.87;;;1.73;;
2674;SDS011;1347;42.122;24.746;2023-03-26T07:33:56;2.30;;;1.70;;
2674;SDS011;1347;42.122;24.746;2023-03-26T07:36:28;3.20;;;2.10;;
2674;SDS011;1347;42.122;24.746;2023-03-26T07:39:03;5.27;;;2.20;;
2674;SDS011;1347;42.122;24.746;2023-03-26T07:41:40;3.77;;;2.10;;
2674;SDS011;1347;42.122;24.746;2023-03-26T07:44:19;3.07;;;2.23;;
2674;SDS011;1347;42.122;24.746;2023-03-26T07:47:01;3.00;;;2.53;;
2674;SDS011;1347;42.122;24.746;2023-03-26T07:49:38;2.73;;;2.53;;
2674;SDS011;1347;42.122;24.746;2023-03-26T07:52:08;2.83;;;1.90;;
2674;SDS011;1347;42.122;24.746;2023-03-26T07:54:36;2.80;;;2.57;;
2674;SDS011;1347;42.122;24.746;2023-03-26T07:57:03;2.80;;;2.20;;
2674;SDS011;1347;42.122;24.746;2023-03-26T07:59:35;3.60;;;2.87;;
2674;SDS011;1347;42.122;24.746;2023-03-26T08:02:17;8.03;;;3.00;;
2674;SDS011;1347;42.122;24.746;2023-03-26T08:05:11;3.30;;;2.50;;
2674;SDS011;1347;42.122;24.746;2023-03-26T08:07:49;3.73;;;2.57;;
2674;SDS011;1347;42.122;24.746;2023-03-26T08:10:22;2.43;;;2.23;;
2674;SDS011;1347;42.122;24.746;2023-03-26T08:12:56;3.50;;;2.30;;
2674;SDS011;1347;42.122;24.746;2023-03-26T08:15:32;2.47;;;2.27;;
2674;SDS011;1347;42.122;24.746;2023-03-26T08:18:05;2.37;;;2.17;;
2674;SDS011;1347;42.122;24.746;2023-03-26T08:20:48;3.33;;;2.33;;
2674;SDS011;1347;42.122;24.746;2023-03-26T08:23:19;1.93;;;1.83;;
2674;SDS011;1347;42.122;24.746;2023-03-26T08:25:56;3.00;;;2.67;;
2674;SDS011;1347;42.122;24.746;2023-03-26T08:28:30;3.57;;;3.13;;
2674;SDS011;1347;42.122;24.746;2023-03-26T08:31:02;3.97;;;2.50;;
2674;SDS011;1347;42.122;24.746;2023-03-26T08:33:30;3.77;;;2.80;;
2674;SDS011;1347;42.122;24.746;2023-03-26T08:35:59;3.17;;;2.33;;
2674;SDS011;1347;42.122;24.746;2023-03-26T08:38:26;3.40;;;2.60;;
2674;SDS011;1347;42.122;24.746;2023-03-26T08:47:05;2.80;;;2.60;;
2674;SDS011;1347;42.122;24.746;2023-03-26T08:52:55;4.07;;;2.47;;
2674;SDS011;1347;42.122;24.746;2023-03-26T08:55:45;3.00;;;2.80;;
2674;SDS011;1347;42.122;24.746;2023-03-26T09:08:02;2.60;;;2.40;;
2674;SDS011;1347;42.122;24.746;2023-03-26T09:10:52;2.77;;;2.57;;
2674;SDS011;1347;42.122;24.746;2023-03-26T09:16:48;2.43;;;2.23;;
2674;SDS011;1347;42.122;24.746;2023-03-26T09:22:39;2.60;;;2.40;;
2674;SDS011;1347;42.122;24.746;2023-03-26T09:28:30;2.60;;;2.33;;
2674;SDS011;1347;42.122;24.746;2023-03-26T09:31:32;2.80;;;2.60;;
2674;SDS011;1347;42.122;24.746;2023-03-26T09:34:34;2.63;;;2.40;;
2674;SDS011;1347;42.122;24.746;2023-03-26T09:37:21;3.50;;;2.63;;
2674;SDS011;1347;42.122;24.746;2023-03-26T09:40:13;5.20;;;3.20;;
2674;SDS011;1347;42.122;24.746;2023-03-26T09:42:48;5.90;;;3.00;;
2674;SDS011;1347;42.122;24.746;2023-03-26T09:45:48;3.23;;;3.03;;
2674;SDS011;1347;42.122;24.746;2023-03-26T09:48:32;2.40;;;2.30;;
2674;SDS011;1347;42.122;24.746;2023-03-26T09:51:35;3.03;;;2.73;;
2674;SDS011;1347;42.122;24.746;2023-03-26T10:04:22;5.80;;;3.10;;
2674;SDS011;1347;42.122;24.746;2023-03-26T10:07:03;3.20;;;2.10;;
2674;SDS011;1347;42.122;24.746;2023-03-26T10:09:43;3.33;;;3.03;;
2674;SDS011;1347;42.122;24.746;2023-03-26T10:12:21;2.77;;;2.57;;
2674;SDS011;1347;42.122;24.746;2023-03-26T10:15:00;3.37;;;3.17;;
2674;SDS011;1347;42.122;24.746;2023-03-26T10:17:42;3.90;;;3.63;;
2674;SDS011;1347;42.122;24.746;2023-03-26T10:20:28;2.87;;;2.67;;
2674;SDS011;1347;42.122;24.746;2023-03-26T10:26:01;3.13;;;2.93;;
2674;SDS011;1347;42.122;24.746;2023-03-26T10:28:42;2.60;;;2.40;;
2674;SDS011;1347;42.122;24.746;2023-03-26T10:31:31;2.90;;;2.60;;
2674;SDS011;1347;42.122;24.746;2023-03-26T10:34:10;2.70;;;2.50;;
2674;SDS011;1347;42.122;24.746;2023-03-26T10:36:46;2.57;;;2.37;;
2674;SDS011;1347;42.122;24.746;2023-03-26T10:39:34;2.80;;;2.60;;
2674;SDS011;1347;42.122;24.746;2023-03-26T10:42:28;2.40;;;2.20;;
2674;SDS011;1347;42.122;24.746;2023-03-26T10:45:12;3.73;;;2.20;;
2674;SDS011;1347;42.122;24.746;2023-03-26T10:47:58;2.40;;;2.23;;
2674;SDS011;1347;42.122;24.746;2023-03-26T10:50:53;3.37;;;2.43;;
2674;SDS011;1347;42.122;24.746;2023-03-26T10:53:59;2.50;;;2.17;;
2674;SDS011;1347;42.122;24.746;2023-03-26T10:56:34;2.97;;;2.30;;
2674;SDS011;1347;42.122;24.746;2023-03-26T10:59:06;2.63;;;2.30;;
2674;SDS011;1347;42.122;24.746;2023-03-26T11:01:39;7.30;;;2.40;;
2674;SDS011;1347;42.122;24.746;2023-03-26T11:04:16;2.50;;;2.30;;
2674;SDS011;1347;42.122;24.746;2023-03-26T11:06:54;4.10;;;2.83;;
2674;SDS011;1347;42.122;24.746;2023-03-26T11:09:32;2.80;;;2.47;;
2674;SDS011;1347;42.122;24.746;2023-03-26T11:12:11;2.00;;;1.90;;
2674;SDS011;1347;42.122;24.746;2023-03-26T11:14:49;5.73;;;2.00;;
2674;SDS011;1347;42.122;24.746;2023-03-26T11:17:27;2.20;;;2.00;;
2674;SDS011;1347;42.122;24.746;2023-03-26T11:20:04;5.33;;;1.83;;
2674;SDS011;1347;42.122;24.746;2023-03-26T11:22:41;2.00;;;1.80;;
2674;SDS011;1347;42.122;24.746;2023-03-26T11:28:09;2.23;;;1.90;;
2674;SDS011;1347;42.122;24.746;2023-03-26T11:30:47;2.00;;;1.67;;
2674;SDS011;1347;42.122;24.746;2023-03-26T11:33:21;3.73;;;1.83;;
2674;SDS011;1347;42.122;24.746;2023-03-26T11:35:52;2.90;;;1.90;;
2674;SDS011;1347;42.122;24.746;2023-03-26T11:38:27;3.57;;;2.47;;
2674;SDS011;1347;42.122;24.746;2023-03-26T11:41:01;3.03;;;2.27;;
2674;SDS011;1347;42.122;24.746;2023-03-26T11:43:31;2.27;;;2.07;;
2674;SDS011;1347;42.122;24.746;2023-03-26T11:46:00;2.43;;;2.20;;
2674;SDS011;1347;42.122;24.746;2023-03-26T11:48:29;2.40;;;2.20;;
2674;SDS011;1347;42.122;24.746;2023-03-26T11:51:01;3.03;;;1.90;;
2674;SDS011;1347;42.122;24.746;2023-03-26T11:53:34;2.10;;;1.90;;
2674;SDS011;1347;42.122;24.746;2023-03-26T11:56:07;2.17;;;1.97;;
2674;SDS011;1347;42.122;24.746;2023-03-26T11:58:41;6.07;;;1.90;;
2674;SDS011;1347;42.122;24.746;2023-03-26T12:01:12;2.53;;;2.33;;
2674;SDS011;1347;42.122;24.746;2023-03-26T12:03:47;2.30;;;1.63;;
2674;SDS011;1347;42.122;24.746;2023-03-26T12:06:22;2.37;;;2.03;;
2674;SDS011;1347;42.122;24.746;2023-03-26T12:08:53;4.10;;;1.57;;
2674;SDS011;1347;42.122;24.746;2023-03-26T12:11:22;2.23;;;2.03;;
2674;SDS011;1347;42.122;24.746;2023-03-26T12:13:54;1.80;;;1.70;;
2674;SDS011;1347;42.122;24.746;2023-03-26T12:16:26;2.00;;;1.87;;
2674;SDS011;1347;42.122;24.746;2023-03-26T12:18:57;3.27;;;3.00;;
2674;SDS011;1347;42.122;24.746;2023-03-26T12:21:26;2.50;;;2.20;;
2674;SDS011;1347;42.122;24.746;2023-03-26T12:23:56;2.60;;;2.17;;
2674;SDS011;1347;42.122;24.746;2023-03-26T12:26:35;2.70;;;2.50;;
2674;SDS011;1347;42.122;24.746;2023-03-26T12:29:06;2.67;;;2.10;;
2674;SDS011;1347;42.122;24.746;2023-03-26T12:31:39;2.30;;;2.10;;
2674;SDS011;1347;42.122;24.746;2023-03-26T12:34:14;2.77;;;2.20;;
2674;SDS011;1347;42.122;24.746;2023-03-26T12:36:47;2.43;;;2.30;;
2674;SDS011;1347;42.122;24.746;2023-03-26T12:39:29;2.53;;;2.33;;
2674;SDS011;1347;42.122;24.746;2023-03-26T12:42:01;2.00;;;1.80;;
2674;SDS011;1347;42.122;24.746;2023-03-26T12:44:32;1.87;;;1.77;;
2674;SDS011;1347;42.122;24.746;2023-03-26T12:47:08;2.17;;;1.80;;
2674;SDS011;1347;42.122;24.746;2023-03-26T12:49:40;2.70;;;1.90;;
2674;SDS011;1347;42.122;24.746;2023-03-26T12:52:18;3.47;;;1.90;;
2674;SDS011;1347;42.122;24.746;2023-03-26T12:54:59;2.00;;;1.90;;
2674;SDS011;1347;42.122;24.746;2023-03-26T12:57:34;2.73;;;1.83;;
2674;SDS011;1347;42.122;24.746;2023-03-26T13:00:17;2.33;;;1.70;;
2674;SDS011;1347;42.122;24.746;2023-03-26T13:03:07;2.93;;;1.90;;
2674;SDS011;1347;42.122;24.746;2023-03-26T13:06:01;1.87;;;1.70;;
2674;SDS011;1347;42.122;24.746;2023-03-26T13:08:53;2.47;;;2.27;;
2674;SDS011;1347;42.122;24.746;2023-03-26T13:11:34;5.57;;;2.33;;
2674;SDS011;1347;42.122;24.746;2023-03-26T13:14:22;2.37;;;2.17;;
2674;SDS011;1347;42.122;24.746;2023-03-26T13:17:11;2.30;;;2.10;;
2674;SDS011;1347;42.122;24.746;2023-03-26T13:19:48;3.03;;;2.23;;
2674;SDS011;1347;42.122;24.746;2023-03-26T13:22:23;3.20;;;2.53;;
2674;SDS011;1347;42.122;24.746;2023-03-26T13:24:56;3.00;;;2.37;;
2674;SDS011;1347;42.122;24.746;2023-03-26T13:27:43;2.60;;;2.40;;
2674;SDS011;1347;42.122;24.746;2023-03-26T13:30:20;4.40;;;2.57;;
2674;SDS011;1347;42.122;24.746;2023-03-26T13:33:03;2.50;;;2.30;;
2674;SDS011;1347;42.122;24.746;2023-03-26T13:35:45;2.70;;;2.50;;
2674;SDS011;1347;42.122;24.746;2023-03-26T13:38:18;2.60;;;2.37;;
2674;SDS011;1347;42.122;24.746;2023-03-26T13:40:56;2.47;;;2.27;;
2674;SDS011;1347;42.122;24.746;2023-03-26T13:43:39;2.20;;;2.00;;
2674;SDS011;1347;42.122;24.746;2023-03-26T13:46:18;2.90;;;2.00;;
2674;SDS011;1347;42.122;24.746;2023-03-26T13:48:53;2.20;;;2.10;;
2674;SDS011;1347;42.122;24.746;2023-03-26T13:51:26;3.20;;;2.90;;
2674;SDS011;1347;42.122;24.746;2023-03-26T13:53:59;2.77;;;2.57;;
2674;SDS011;1347;42.122;24.746;2023-03-26T13:56:34;3.30;;;2.43;;
2674;SDS011;1347;42.122;24.746;2023-03-26T13:59:07;2.27;;;2.07;;
2674;SDS011;1347;42.122;24.746;2023-03-26T14:01:40;2.57;;;2.37;;
2674;SDS011;1347;42.122;24.746;2023-03-26T14:04:12;2.93;;;2.70;;
2674;SDS011;1347;42.122;24.746;2023-03-26T14:06:46;2.47;;;1.80;;
2674;SDS011;1347;42.122;24.746;2023-03-26T14:09:23;3.40;;;3.10;;
2674;SDS011;1347;42.122;24.746;2023-03-26T14:11:59;3.00;;;2.63;;
2674;SDS011;1347;42.122;24.746;2023-03-26T14:14:47;3.50;;;2.50;;
2674;SDS011;1347;42.122;24.746;2023-03-26T14:17:18;3.47;;;2.50;;
2674;SDS011;1347;42.122;24.746;2023-03-26T14:20:12;2.10;;;1.87;;
2674;SDS011;1347;42.122;24.746;2023-03-26T14:23:01;5.83;;;2.80;;
2674;SDS011;1347;42.122;24.746;2023-03-26T14:25:41;3.00;;;2.07;;
2674;SDS011;1347;42.122;24.746;2023-03-26T14:28:25;2.30;;;2.10;;
2674;SDS011;1347;42.122;24.746;2023-03-26T14:31:10;2.77;;;2.50;;
2674;SDS011;1347;42.122;24.746;2023-03-26T14:40:06;3.10;;;2.47;;
2674;SDS011;1347;42.122;24.746;2023-03-26T14:43:03;2.63;;;2.20;;
2674;SDS011;1347;42.122;24.746;2023-03-26T14:45:54;3.20;;;2.60;;
2674;SDS011;1347;42.122;24.746;2023-03-26T14:48:36;2.47;;;2.27;;
2674;SDS011;1347;42.122;24.746;2023-03-26T14:54:13;3.30;;;2.30;;
2674;SDS011;1347;42.122;24.746;2023-03-26T14:56:47;2.93;;;2.20;;
2674;SDS011;1347;42.122;24.746;2023-03-26T14:59:32;3.40;;;3.10;;
2674;SDS011;1347;42.122;24.746;2023-03-26T15:05:58;2.50;;;2.17;;
2674;SDS011;1347;42.122;24.746;2023-03-26T15:12:15;2.20;;;2.00;;
2674;SDS011;1347;42.122;24.746;2023-03-26T15:18:22;2.10;;;1.90;;
2674;SDS011;1347;42.122;24.746;2023-03-26T15:28:24;4.47;;;3.37;;
2674;SDS011;1347;42.122;24.746;2023-03-26T15:55:57;2.20;;;2.00;;
2674;SDS011;1347;42.122;24.746;2023-03-26T15:59:02;8.00;;;4.07;;
2674;SDS011;1347;42.122;24.746;2023-03-26T16:01:48;4.63;;;3.20;;
2674;SDS011;1347;42.122;24.746;2023-03-26T16:04:30;4.27;;;3.27;;
2674;SDS011;1347;42.122;24.746;2023-03-26T16:11:21;5.13;;;2.83;;
2674;SDS011;1347;42.122;24.746;2023-03-26T16:14:37;2.90;;;2.67;;
2674;SDS011;1347;42.122;24.746;2023-03-26T16:20:43;2.00;;;1.80;;
2674;SDS011;1347;42.122;24.746;2023-03-26T16:23:18;3.13;;;2.83;;
2674;SDS011;1347;42.122;24.746;2023-03-26T16:25:59;6.07;;;3.20;;
2674;SDS011;1347;42.122;24.746;2023-03-26T16:34:43;6.97;;;3.80;;
2674;SDS011;1347;42.122;24.746;2023-03-26T16:40:38;4.33;;;3.93;;
2674;SDS011;1347;42.122;24.746;2023-03-26T16:43:54;3.73;;;3.40;;
2674;SDS011;1347;42.122;24.746;2023-03-26T16:50:19;3.07;;;2.87;;
2674;SDS011;1347;42.122;24.746;2023-03-26T16:53:06;8.83;;;4.50;;
2674;SDS011;1347;42.122;24.746;2023-03-26T16:56:24;8.03;;;6.00;;
2674;SDS011;1347;42.122;24.746;2023-03-26T17:00:01;4.50;;;3.77;;
2674;SDS011;1347;42.122;24.746;2023-03-26T17:02:43;6.67;;;4.20;;
2674;SDS011;1347;42.122;24.746;2023-03-26T17:09:16;7.03;;;4.23;;
2674;SDS011;1347;42.122;24.746;2023-03-26T17:12:02;4.97;;;4.47;;
2674;SDS011;1347;42.122;24.746;2023-03-26T17:15:02;5.00;;;3.80;;
2674;SDS011;1347;42.122;24.746;2023-03-26T17:18:33;6.47;;;5.10;;
2674;SDS011;1347;42.122;24.746;2023-03-26T17:21:40;8.20;;;6.30;;
2674;SDS011;1347;42.122;24.746;2023-03-26T17:28:23;10.23;;;7.70;;
2674;SDS011;1347;42.122;24.746;2023-03-26T17:31:34;29.70;;;18.77;;
2674;SDS011;1347;42.122;24.746;2023-03-26T17:37:33;20.77;;;15.00;;
2674;SDS011;1347;42.122;24.746;2023-03-26T17:43:32;20.67;;;11.30;;
2674;SDS011;1347;42.122;24.746;2023-03-26T17:46:11;14.90;;;12.10;;
2674;SDS011;1347;42.122;24.746;2023-03-26T18:03:07;11.83;;;8.30;;
2674;SDS011;1347;42.122;24.746;2023-03-26T18:05:50;14.10;;;9.77;;
2674;SDS011;1347;42.122;24.746;2023-03-26T18:08:28;13.57;;;10.53;;
2674;SDS011;1347;42.122;24.746;2023-03-26T18:11:17;16.13;;;9.70;;
2674;SDS011;1347;42.122;24.746;2023-03-26T18:14:04;14.73;;;10.47;;